sensor_id;sensor_type;location;lat;lon;timestamp;temperature;humidity
9383;DHT22;4731;49.708;10.816;2023-03-01T00:00:00;-1.60;99.90
9383;DHT22;4731;49.708;10.816;2023-03-01T00:02:28;-1.60;99.90
9383;DHT22;4731;49.708;10.816;2023-03-01T00:04:56;-1.60;99.90
9383;DHT22;4731;49.708;10.816;2023-03-01T00:07:23;-1.60;99.90
9383;DHT22;4731;49.708;10.816;2023-03-01T00:09:50;-1.60;99.90
9383;DHT22;4731;49.708;10.816;2023-03-01T00:12:16;-1.60;99.90
9383;DHT22;4731;49.708;10.816;2023-03-01T00:14:43;-1.70;99.90
9383;DHT22;4731;49.708;10.816;2023-03-01T00:17:10;-1.60;99.90
9383;DHT22;4731;49.708;10.816;2023-03-01T00:19:37;-1.70;99.90
9383;DHT22;4731;49.708;10.816;2023-03-01T00:22:05;-1.70;99.90
9383;DHT22;4731;49.708;10.816;2023-03-01T00:24:32;-1.70;99.90
9383;DHT22;4731;49.708;10.816;2023-03-01T00:26:59;-1.70;99.90
9383;DHT22;4731;49.708;10.816;2023-03-01T00:29:26;-1.80;99.90
9383;DHT22;4731;49.708;10.816;2023-03-01T00:31:52;-1.80;99.90
9383;DHT22;4731;49.708;10.816;2023-03-01T00:34:19;-1.80;99.90
9383;DHT22;4731;49.708;10.816;2023-03-01T00:36:46;-3.00;99.90
9383;DHT22;4731;49.708;10.816;2023-03-01T00:39:15;-1.30;99.90
9383;DHT22;4731;49.708;10.816;2023-03-01T00:41:42;-1.80;99.90
9383;DHT22;4731;49.708;10.816;2023-03-01T00:44:10;-1.00;99.90
9383;DHT22;4731;49.708;10.816;2023-03-01T00:46:38;-1.80;99.90
9383;DHT22;4731;49.708;10.816;2023-03-01T00:49:05;-1.80;99.90
9383;DHT22;4731;49.708;10.816;2023-03-01T00:51:32;-1.80;99.90
9383;DHT22;4731;49.708;10.816;2023-03-01T00:54:01;-1.80;99.90
9383;DHT22;4731;49.708;10.816;2023-03-01T00:56:30;-1.80;99.90
9383;DHT22;4731;49.708;10.816;2023-03-01T00:58:57;-1.80;99.90
9383;DHT22;4731;49.708;10.816;2023-03-01T01:01:25;-1.80;99.90
9383;DHT22;4731;49.708;10.816;2023-03-01T01:03:54;-1.80;99.90
9383;DHT22;4731;49.708;10.816;2023-03-01T01:06:23;-1.80;99.90
9383;DHT22;4731;49.708;10.816;2023-03-01T01:08:51;-1.80;99.90
9383;DHT22;4731;49.708;10.816;2023-03-01T01:11:19;-1.80;99.90
9383;DHT22;4731;49.708;10.816;2023-03-01T01:13:48;-1.80;99.90
9383;DHT22;4731;49.708;10.816;2023-03-01T01:16:16;-1.80;99.90
9383;DHT22;4731;49.708;10.816;2023-03-01T01:18:44;-1.80;99.90
9383;DHT22;4731;49.708;10.816;2023-03-01T01:21:14;-1.90;99.90
9383;DHT22;4731;49.708;10.816;2023-03-01T01:23:43;-1.10;99.90
9383;DHT22;4731;49.708;10.816;2023-03-01T01:26:12;-1.90;99.90
9383;DHT22;4731;49.708;10.816;2023-03-01T01:28:39;-1.90;99.90
9383;DHT22;4731;49.708;10.816;2023-03-01T01:31:08;-2.00;99.90
9383;DHT22;4731;49.708;10.816;2023-03-01T01:33:34;-2.00;99.90
9383;DHT22;4731;49.708;10.816;2023-03-01T01:36:03;-2.10;99.90
9383;DHT22;4731;49.708;10.816;2023-03-01T01:38:30;-2.00;99.90
9383;DHT22;4731;49.708;10.816;2023-03-01T01:40:57;-2.00;99.90
9383;DHT22;4731;49.708;10.816;2023-03-01T01:43:26;-2.10;99.90
9383;DHT22;4731;49.708;10.816;2023-03-01T01:45:55;-2.00;99.90
9383;DHT22;4731;49.708;10.816;2023-03-01T01:48:31;-2.00;99.90
9383;DHT22;4731;49.708;10.816;2023-03-01T01:51:07;-2.00;99.90
9383;DHT22;4731;49.708;10.816;2023-03-01T01:53:35;-2.00;99.90
9383;DHT22;4731;49.708;10.816;2023-03-01T01:56:07;-2.10;99.90
9383;DHT22;4731;49.708;10.816;2023-03-01T01:58:36;-2.10;99.90
9383;DHT22;4731;49.708;10.816;2023-03-01T02:01:04;-2.00;99.90
9383;DHT22;4731;49.708;10.816;2023-03-01T02:03:34;-2.10;99.90
9383;DHT22;4731;49.708;10.816;2023-03-01T02:06:06;-2.20;99.90
9383;DHT22;4731;49.708;10.816;2023-03-01T02:08:39;-2.20;99.90
9383;DHT22;4731;49.708;10.816;2023-03-01T02:11:08;-2.10;99.90
9383;DHT22;4731;49.708;10.816;2023-03-01T02:13:36;-2.20;99.90
9383;DHT22;4731;49.708;10.816;2023-03-01T02:16:04;-2.20;99.90
9383;DHT22;4731;49.708;10.816;2023-03-01T02:18:32;-2.20;99.90
9383;DHT22;4731;49.708;10.816;2023-03-01T02:21:07;-2.30;99.90
9383;DHT22;4731;49.708;10.816;2023-03-01T02:23:36;-2.30;99.90
9383;DHT22;4731;49.708;10.816;2023-03-01T02:26:06;-2.30;99.90
9383;DHT22;4731;49.708;10.816;2023-03-01T02:28:37;-2.40;99.90
9383;DHT22;4731;49.708;10.816;2023-03-01T02:31:06;-2.40;99.90
9383;DHT22;4731;49.708;10.816;2023-03-01T02:33:53;-2.40;99.90
9383;DHT22;4731;49.708;10.816;2023-03-01T02:36:22;-2.50;99.90
9383;DHT22;4731;49.708;10.816;2023-03-01T02:38:53;-2.50;99.90
9383;DHT22;4731;49.708;10.816;2023-03-01T02:41:23;-2.50;99.90
9383;DHT22;4731;49.708;10.816;2023-03-01T02:43:52;-2.60;99.90
9383;DHT22;4731;49.708;10.816;2023-03-01T02:46:20;-2.60;99.90
9383;DHT22;4731;49.708;10.816;2023-03-01T02:48:50;-2.60;99.90
9383;DHT22;4731;49.708;10.816;2023-03-01T02:51:31;-2.60;99.90
9383;DHT22;4731;49.708;10.816;2023-03-01T02:54:10;-2.60;99.90
9383;DHT22;4731;49.708;10.816;2023-03-01T02:56:39;0.60;99.90
9383;DHT22;4731;49.708;10.816;2023-03-01T02:59:08;-2.60;99.90
9383;DHT22;4731;49.708;10.816;2023-03-01T03:01:36;-2.60;99.90
9383;DHT22;4731;49.708;10.816;2023-03-01T03:04:09;-2.60;99.90
9383;DHT22;4731;49.708;10.816;2023-03-01T03:06:38;-2.70;99.90
9383;DHT22;4731;49.708;10.816;2023-03-01T03:09:05;-0.70;99.90
9383;DHT22;4731;49.708;10.816;2023-03-01T03:11:33;-2.80;99.90
9383;DHT22;4731;49.708;10.816;2023-03-01T03:14:00;-2.70;99.90
9383;DHT22;4731;49.708;10.816;2023-03-01T03:16:29;-2.70;99.90
9383;DHT22;4731;49.708;10.816;2023-03-01T03:18:56;-0.90;99.90
9383;DHT22;4731;49.708;10.816;2023-03-01T03:21:30;-2.70;99.90
9383;DHT22;4731;49.708;10.816;2023-03-01T03:23:58;-2.70;99.90
9383;DHT22;4731;49.708;10.816;2023-03-01T03:26:25;-2.70;99.90
9383;DHT22;4731;49.708;10.816;2023-03-01T03:28:52;0.50;99.90
9383;DHT22;4731;49.708;10.816;2023-03-01T03:31:18;-2.70;99.90
9383;DHT22;4731;49.708;10.816;2023-03-01T03:33:47;-2.80;99.90
9383;DHT22;4731;49.708;10.816;2023-03-01T03:36:16;-2.80;99.90
9383;DHT22;4731;49.708;10.816;2023-03-01T03:38:43;-2.80;99.90
9383;DHT22;4731;49.708;10.816;2023-03-01T03:41:11;-2.80;99.90
9383;DHT22;4731;49.708;10.816;2023-03-01T03:43:39;-2.80;99.90
9383;DHT22;4731;49.708;10.816;2023-03-01T03:46:08;-2.80;99.90
9383;DHT22;4731;49.708;10.816;2023-03-01T03:48:39;-2.80;99.90
9383;DHT22;4731;49.708;10.816;2023-03-01T03:51:10;-3.60;99.90
9383;DHT22;4731;49.708;10.816;2023-03-01T03:53:36;-2.90;99.90
9383;DHT22;4731;49.708;10.816;2023-03-01T03:56:04;-2.90;99.90
9383;DHT22;4731;49.708;10.816;2023-03-01T03:58:31;-2.90;99.90
9383;DHT22;4731;49.708;10.816;2023-03-01T04:00:57;-3.00;99.90
9383;DHT22;4731;49.708;10.816;2023-03-01T04:03:27;-0.10;99.90
9383;DHT22;4731;49.708;10.816;2023-03-01T04:05:54;-3.00;99.90
9383;DHT22;4731;49.708;10.816;2023-03-01T04:08:24;0.40;99.90
9383;DHT22;4731;49.708;10.816;2023-03-01T04:10:56;-3.00;99.90
9383;DHT22;4731;49.708;10.816;2023-03-01T04:13:23;-3.00;99.90
9383;DHT22;4731;49.708;10.816;2023-03-01T04:15:51;-3.10;99.90
9383;DHT22;4731;49.708;10.816;2023-03-01T04:18:19;-3.00;99.90
9383;DHT22;4731;49.708;10.816;2023-03-01T04:20:46;-3.10;99.90
9383;DHT22;4731;49.708;10.816;2023-03-01T04:23:16;-3.10;99.90
9383;DHT22;4731;49.708;10.816;2023-03-01T04:25:48;-3.10;99.90
9383;DHT22;4731;49.708;10.816;2023-03-01T04:28:19;-3.10;99.90
9383;DHT22;4731;49.708;10.816;2023-03-01T04:30:46;-3.00;99.90
9383;DHT22;4731;49.708;10.816;2023-03-01T04:33:12;-2.90;99.90
9383;DHT22;4731;49.708;10.816;2023-03-01T04:35:39;-2.90;99.90
9383;DHT22;4731;49.708;10.816;2023-03-01T04:38:07;-2.90;99.90
9383;DHT22;4731;49.708;10.816;2023-03-01T04:40:36;-2.90;99.90
9383;DHT22;4731;49.708;10.816;2023-03-01T04:43:04;-2.80;99.90
9383;DHT22;4731;49.708;10.816;2023-03-01T04:45:32;-2.80;99.90
9383;DHT22;4731;49.708;10.816;2023-03-01T04:48:01;-2.70;99.90
9383;DHT22;4731;49.708;10.816;2023-03-01T04:50:27;-2.70;99.90
9383;DHT22;4731;49.708;10.816;2023-03-01T04:52:55;-2.60;99.90
9383;DHT22;4731;49.708;10.816;2023-03-01T04:55:24;-2.60;99.90
9383;DHT22;4731;49.708;10.816;2023-03-01T04:57:51;-2.50;99.90
9383;DHT22;4731;49.708;10.816;2023-03-01T05:02:48;-2.50;99.90
9383;DHT22;4731;49.708;10.816;2023-03-01T05:05:19;-2.50;99.90
9383;DHT22;4731;49.708;10.816;2023-03-01T05:07:46;-2.60;99.90
9383;DHT22;4731;49.708;10.816;2023-03-01T05:10:13;-2.60;99.90
9383;DHT22;4731;49.708;10.816;2023-03-01T05:12:39;-2.60;99.90
9383;DHT22;4731;49.708;10.816;2023-03-01T05:15:07;-2.60;99.90
9383;DHT22;4731;49.708;10.816;2023-03-01T05:17:35;-2.60;99.90
9383;DHT22;4731;49.708;10.816;2023-03-01T05:20:03;-2.60;99.90
9383;DHT22;4731;49.708;10.816;2023-03-01T05:22:32;-2.60;99.90
9383;DHT22;4731;49.708;10.816;2023-03-01T05:24:59;-2.60;99.90
9383;DHT22;4731;49.708;10.816;2023-03-01T05:27:26;-2.60;99.90
9383;DHT22;4731;49.708;10.816;2023-03-01T05:29:52;-2.60;99.90
9383;DHT22;4731;49.708;10.816;2023-03-01T05:32:19;-2.70;99.90
9383;DHT22;4731;49.708;10.816;2023-03-01T05:34:47;-2.70;99.90
9383;DHT22;4731;49.708;10.816;2023-03-01T05:37:14;-2.80;99.90
9383;DHT22;4731;49.708;10.816;2023-03-01T05:39:41;-2.90;99.90
9383;DHT22;4731;49.708;10.816;2023-03-01T05:42:10;-2.90;99.90
9383;DHT22;4731;49.708;10.816;2023-03-01T05:44:37;-3.00;99.90
9383;DHT22;4731;49.708;10.816;2023-03-01T05:47:04;-3.00;99.90
9383;DHT22;4731;49.708;10.816;2023-03-01T05:49:32;-3.00;99.90
9383;DHT22;4731;49.708;10.816;2023-03-01T05:54:27;-3.10;99.90
9383;DHT22;4731;49.708;10.816;2023-03-01T05:56:53;-3.10;99.90
9383;DHT22;4731;49.708;10.816;2023-03-01T05:59:21;-3.20;99.90
9383;DHT22;4731;49.708;10.816;2023-03-01T06:01:48;-5.20;99.90
9383;DHT22;4731;49.708;10.816;2023-03-01T06:04:15;-3.10;99.90
9383;DHT22;4731;49.708;10.816;2023-03-01T06:06:42;-3.20;99.90
9383;DHT22;4731;49.708;10.816;2023-03-01T06:09:10;-3.10;99.90
9383;DHT22;4731;49.708;10.816;2023-03-01T06:14:05;-3.10;99.90
9383;DHT22;4731;49.708;10.816;2023-03-01T06:16:33;-3.00;99.90
9383;DHT22;4731;49.708;10.816;2023-03-01T06:19:00;-3.00;99.90
9383;DHT22;4731;49.708;10.816;2023-03-01T06:21:26;-6.00;99.90
9383;DHT22;4731;49.708;10.816;2023-03-01T06:23:53;-2.80;99.90
9383;DHT22;4731;49.708;10.816;2023-03-01T06:26:21;-2.80;99.90
9383;DHT22;4731;49.708;10.816;2023-03-01T06:28:48;-2.70;99.90
9383;DHT22;4731;49.708;10.816;2023-03-01T06:31:15;-2.60;99.90
9383;DHT22;4731;49.708;10.816;2023-03-01T06:33:42;-2.50;99.90
9383;DHT22;4731;49.708;10.816;2023-03-01T06:36:10;-2.40;99.90
9383;DHT22;4731;49.708;10.816;2023-03-01T06:38:37;-2.00;99.90
9383;DHT22;4731;49.708;10.816;2023-03-01T06:41:06;-1.10;99.90
9383;DHT22;4731;49.708;10.816;2023-03-01T06:46:04;1.50;99.90
9383;DHT22;4731;49.708;10.816;2023-03-01T06:48:32;4.40;99.90
9383;DHT22;4731;49.708;10.816;2023-03-01T06:50:59;3.70;99.90
9383;DHT22;4731;49.708;10.816;2023-03-01T06:53:26;4.60;99.90
9383;DHT22;4731;49.708;10.816;2023-03-01T06:55:54;5.40;99.90
9383;DHT22;4731;49.708;10.816;2023-03-01T06:58:21;6.30;99.90
9383;DHT22;4731;49.708;10.816;2023-03-01T07:00:49;7.10;99.90
9383;DHT22;4731;49.708;10.816;2023-03-01T07:03:19;9.30;99.90
9383;DHT22;4731;49.708;10.816;2023-03-01T07:05:48;8.40;99.90
9383;DHT22;4731;49.708;10.816;2023-03-01T07:08:15;8.90;99.90
9383;DHT22;4731;49.708;10.816;2023-03-01T07:10:42;10.30;99.90
9383;DHT22;4731;49.708;10.816;2023-03-01T07:13:08;9.60;99.90
9383;DHT22;4731;49.708;10.816;2023-03-01T07:15:35;9.90;99.90
9383;DHT22;4731;49.708;10.816;2023-03-01T07:18:03;13.80;99.90
9383;DHT22;4731;49.708;10.816;2023-03-01T07:20:30;11.90;99.90
9383;DHT22;4731;49.708;10.816;2023-03-01T07:22:57;11.60;99.90
9383;DHT22;4731;49.708;10.816;2023-03-01T07:25:24;12.10;99.90
9383;DHT22;4731;49.708;10.816;2023-03-01T07:27:52;12.80;99.90
9383;DHT22;4731;49.708;10.816;2023-03-01T07:30:20;13.40;99.90
9383;DHT22;4731;49.708;10.816;2023-03-01T07:35:17;14.50;95.40
9383;DHT22;4731;49.708;10.816;2023-03-01T07:37:44;14.20;94.40
9383;DHT22;4731;49.708;10.816;2023-03-01T07:40:11;15.30;94.20
9383;DHT22;4731;49.708;10.816;2023-03-01T07:42:38;14.50;91.60
9383;DHT22;4731;49.708;10.816;2023-03-01T07:45:06;14.90;91.20
9383;DHT22;4731;49.708;10.816;2023-03-01T07:47:33;15.10;90.70
9383;DHT22;4731;49.708;10.816;2023-03-01T07:50:00;15.50;90.10
9383;DHT22;4731;49.708;10.816;2023-03-01T07:52:29;16.40;88.80
9383;DHT22;4731;49.708;10.816;2023-03-01T07:54:57;16.00;86.30
9383;DHT22;4731;49.708;10.816;2023-03-01T07:57:24;15.90;84.00
9383;DHT22;4731;49.708;10.816;2023-03-01T07:59:51;16.40;83.50
9383;DHT22;4731;49.708;10.816;2023-03-01T08:02:18;14.40;82.40
9383;DHT22;4731;49.708;10.816;2023-03-01T08:04:45;14.50;85.30
9383;DHT22;4731;49.708;10.816;2023-03-01T08:07:12;16.90;86.60
9383;DHT22;4731;49.708;10.816;2023-03-01T08:12:07;15.80;82.60
9383;DHT22;4731;49.708;10.816;2023-03-01T08:14:34;16.50;80.00
9383;DHT22;4731;49.708;10.816;2023-03-01T08:17:01;18.20;81.30
9383;DHT22;4731;49.708;10.816;2023-03-01T08:19:29;17.40;77.70
9383;DHT22;4731;49.708;10.816;2023-03-01T08:24:25;16.90;76.50
9383;DHT22;4731;49.708;10.816;2023-03-01T08:26:53;16.40;75.70
9383;DHT22;4731;49.708;10.816;2023-03-01T08:29:22;18.00;77.70
9383;DHT22;4731;49.708;10.816;2023-03-01T08:31:50;18.70;75.80
9383;DHT22;4731;49.708;10.816;2023-03-01T08:34:18;19.60;77.40
9383;DHT22;4731;49.708;10.816;2023-03-01T08:36:46;17.40;75.90
9383;DHT22;4731;49.708;10.816;2023-03-01T08:39:15;16.80;71.70
9383;DHT22;4731;49.708;10.816;2023-03-01T08:41:42;15.70;73.20
9383;DHT22;4731;49.708;10.816;2023-03-01T08:44:11;16.80;76.40
9383;DHT22;4731;49.708;10.816;2023-03-01T08:46:41;15.10;73.00
9383;DHT22;4731;49.708;10.816;2023-03-01T08:49:10;16.10;74.30
9383;DHT22;4731;49.708;10.816;2023-03-01T08:51:37;17.20;72.90
9383;DHT22;4731;49.708;10.816;2023-03-01T08:54:05;18.00;71.90
9383;DHT22;4731;49.708;10.816;2023-03-01T08:56:32;17.10;69.80
9383;DHT22;4731;49.708;10.816;2023-03-01T08:58:59;15.20;70.20
9383;DHT22;4731;49.708;10.816;2023-03-01T09:01:28;13.00;75.20
9383;DHT22;4731;49.708;10.816;2023-03-01T09:03:55;13.80;77.40
9383;DHT22;4731;49.708;10.816;2023-03-01T09:06:22;14.00;77.40
9383;DHT22;4731;49.708;10.816;2023-03-01T09:08:50;16.20;76.20
9383;DHT22;4731;49.708;10.816;2023-03-01T09:11:20;18.20;72.80
9383;DHT22;4731;49.708;10.816;2023-03-01T09:13:48;17.30;64.20
9383;DHT22;4731;49.708;10.816;2023-03-01T09:16:17;17.20;64.80
9383;DHT22;4731;49.708;10.816;2023-03-01T09:18:49;18.80;66.60
9383;DHT22;4731;49.708;10.816;2023-03-01T09:21:18;19.10;65.80
9383;DHT22;4731;49.708;10.816;2023-03-01T09:23:47;19.10;65.80
9383;DHT22;4731;49.708;10.816;2023-03-01T09:26:16;19.40;63.80
9383;DHT22;4731;49.708;10.816;2023-03-01T09:28:45;19.40;63.90
9383;DHT22;4731;49.708;10.816;2023-03-01T09:31:12;20.70;65.10
9383;DHT22;4731;49.708;10.816;2023-03-01T09:33:41;18.80;64.70
9383;DHT22;4731;49.708;10.816;2023-03-01T09:36:11;20.60;65.40
9383;DHT22;4731;49.708;10.816;2023-03-01T09:38:38;21.10;63.30
9383;DHT22;4731;49.708;10.816;2023-03-01T09:41:10;19.50;60.70
9383;DHT22;4731;49.708;10.816;2023-03-01T09:43:42;19.40;61.60
9383;DHT22;4731;49.708;10.816;2023-03-01T09:46:12;18.00;63.70
9383;DHT22;4731;49.708;10.816;2023-03-01T09:48:43;17.10;64.00
9383;DHT22;4731;49.708;10.816;2023-03-01T09:51:18;16.90;64.60
9383;DHT22;4731;49.708;10.816;2023-03-01T09:53:45;16.30;65.20
9383;DHT22;4731;49.708;10.816;2023-03-01T09:56:17;17.80;66.20
9383;DHT22;4731;49.708;10.816;2023-03-01T09:58:52;17.30;64.20
9383;DHT22;4731;49.708;10.816;2023-03-01T10:01:28;18.70;67.00
9383;DHT22;4731;49.708;10.816;2023-03-01T10:04:12;19.70;64.70
9383;DHT22;4731;49.708;10.816;2023-03-01T10:06:52;20.50;62.60
9383;DHT22;4731;49.708;10.816;2023-03-01T10:09:22;21.80;61.20
9383;DHT22;4731;49.708;10.816;2023-03-01T10:11:52;22.80;58.70
9383;DHT22;4731;49.708;10.816;2023-03-01T10:14:29;23.40;58.40
9383;DHT22;4731;49.708;10.816;2023-03-01T10:16:59;23.80;56.70
9383;DHT22;4731;49.708;10.816;2023-03-01T10:19:31;23.80;56.90
9383;DHT22;4731;49.708;10.816;2023-03-01T10:22:03;23.40;56.50
9383;DHT22;4731;49.708;10.816;2023-03-01T10:24:34;23.60;56.20
9383;DHT22;4731;49.708;10.816;2023-03-01T10:27:05;24.20;53.90
9383;DHT22;4731;49.708;10.816;2023-03-01T10:29:39;24.30;54.50
9383;DHT22;4731;49.708;10.816;2023-03-01T10:32:06;25.20;54.60
9383;DHT22;4731;49.708;10.816;2023-03-01T10:34:34;25.40;54.10
9383;DHT22;4731;49.708;10.816;2023-03-01T10:37:11;25.50;53.40
9383;DHT22;4731;49.708;10.816;2023-03-01T10:39:55;25.80;51.70
9383;DHT22;4731;49.708;10.816;2023-03-01T10:42:26;24.60;50.20
9383;DHT22;4731;49.708;10.816;2023-03-01T10:44:54;22.80;51.40
9383;DHT22;4731;49.708;10.816;2023-03-01T10:47:23;24.10;54.30
9383;DHT22;4731;49.708;10.816;2023-03-01T10:49:56;22.10;53.90
9383;DHT22;4731;49.708;10.816;2023-03-01T10:52:27;23.20;53.70
9383;DHT22;4731;49.708;10.816;2023-03-01T10:54:56;22.80;52.10
9383;DHT22;4731;49.708;10.816;2023-03-01T10:57:32;23.40;53.10
9383;DHT22;4731;49.708;10.816;2023-03-01T11:00:17;24.10;52.90
9383;DHT22;4731;49.708;10.816;2023-03-01T11:02:48;23.60;51.30
9383;DHT22;4731;49.708;10.816;2023-03-01T11:05:23;26.00;53.70
9383;DHT22;4731;49.708;10.816;2023-03-01T11:07:53;25.00;52.10
9383;DHT22;4731;49.708;10.816;2023-03-01T11:10:26;23.80;51.40
9383;DHT22;4731;49.708;10.816;2023-03-01T11:12:54;24.00;51.20
9383;DHT22;4731;49.708;10.816;2023-03-01T11:15:31;24.30;51.80
9383;DHT22;4731;49.708;10.816;2023-03-01T11:17:58;24.50;51.40
9383;DHT22;4731;49.708;10.816;2023-03-01T11:20:28;23.90;51.70
9383;DHT22;4731;49.708;10.816;2023-03-01T11:23:00;22.80;51.30
9383;DHT22;4731;49.708;10.816;2023-03-01T11:25:31;22.80;51.00
9383;DHT22;4731;49.708;10.816;2023-03-01T11:27:59;23.00;52.10
9383;DHT22;4731;49.708;10.816;2023-03-01T11:30:31;23.90;51.80
9383;DHT22;4731;49.708;10.816;2023-03-01T11:33:07;23.90;51.90
9383;DHT22;4731;49.708;10.816;2023-03-01T11:35:42;24.30;52.20
9383;DHT22;4731;49.708;10.816;2023-03-01T11:38:19;24.60;50.50
9383;DHT22;4731;49.708;10.816;2023-03-01T11:40:51;22.60;51.50
9383;DHT22;4731;49.708;10.816;2023-03-01T11:43:25;22.60;51.70
9383;DHT22;4731;49.708;10.816;2023-03-01T11:46:19;22.80;51.70
9383;DHT22;4731;49.708;10.816;2023-03-01T11:49:00;23.10;51.80
9383;DHT22;4731;49.708;10.816;2023-03-01T11:51:40;23.90;51.60
9383;DHT22;4731;49.708;10.816;2023-03-01T11:54:28;24.00;51.20
9383;DHT22;4731;49.708;10.816;2023-03-01T11:56:57;23.90;51.40
9383;DHT22;4731;49.708;10.816;2023-03-01T11:59:48;24.10;51.60
9383;DHT22;4731;49.708;10.816;2023-03-01T12:02:36;23.40;50.70
9383;DHT22;4731;49.708;10.816;2023-03-01T12:08:04;23.00;51.70
9383;DHT22;4731;49.708;10.816;2023-03-01T12:10:38;22.90;52.10
9383;DHT22;4731;49.708;10.816;2023-03-01T12:13:28;21.30;51.20
9383;DHT22;4731;49.708;10.816;2023-03-01T12:16:20;21.00;52.70
9383;DHT22;4731;49.708;10.816;2023-03-01T12:19:15;22.50;53.10
9383;DHT22;4731;49.708;10.816;2023-03-01T12:21:58;23.20;52.80
9383;DHT22;4731;49.708;10.816;2023-03-01T12:24:59;23.40;52.50
9383;DHT22;4731;49.708;10.816;2023-03-01T12:27:45;23.80;51.80
9383;DHT22;4731;49.708;10.816;2023-03-01T12:30:26;24.20;51.40
9383;DHT22;4731;49.708;10.816;2023-03-01T12:33:07;23.70;50.00
9383;DHT22;4731;49.708;10.816;2023-03-01T12:35:55;22.30;51.40
9383;DHT22;4731;49.708;10.816;2023-03-01T12:38:33;21.30;52.10
9383;DHT22;4731;49.708;10.816;2023-03-01T12:41:33;21.60;52.60
9383;DHT22;4731;49.708;10.816;2023-03-01T12:44:11;20.80;52.40
9383;DHT22;4731;49.708;10.816;2023-03-01T12:47:01;20.80;53.20
9383;DHT22;4731;49.708;10.816;2023-03-01T12:49:32;21.20;53.60
9383;DHT22;4731;49.708;10.816;2023-03-01T12:52:11;21.40;53.00
9383;DHT22;4731;49.708;10.816;2023-03-01T12:54:40;23.40;56.20
9383;DHT22;4731;49.708;10.816;2023-03-01T12:57:15;20.50;54.40
9383;DHT22;4731;49.708;10.816;2023-03-01T12:59:56;21.00;54.00
9383;DHT22;4731;49.708;10.816;2023-03-01T13:02:26;20.90;54.30
9383;DHT22;4731;49.708;10.816;2023-03-01T13:05:07;21.10;54.20
9383;DHT22;4731;49.708;10.816;2023-03-01T13:07:48;20.80;54.10
9383;DHT22;4731;49.708;10.816;2023-03-01T13:10:24;20.70;54.00
9383;DHT22;4731;49.708;10.816;2023-03-01T13:13:01;21.40;54.70
9383;DHT22;4731;49.708;10.816;2023-03-01T13:15:33;21.40;54.60
9383;DHT22;4731;49.708;10.816;2023-03-01T13:18:02;21.30;54.40
9383;DHT22;4731;49.708;10.816;2023-03-01T13:20:32;21.40;54.50
9383;DHT22;4731;49.708;10.816;2023-03-01T13:23:24;21.20;54.20
9383;DHT22;4731;49.708;10.816;2023-03-01T13:26:06;19.80;54.40
9383;DHT22;4731;49.708;10.816;2023-03-01T13:28:44;19.30;55.10
9383;DHT22;4731;49.708;10.816;2023-03-01T13:37:22;19.30;55.80
9383;DHT22;4731;49.708;10.816;2023-03-01T13:39:51;20.90;57.50
9383;DHT22;4731;49.708;10.816;2023-03-01T13:42:35;19.70;58.30
9383;DHT22;4731;49.708;10.816;2023-03-01T13:45:04;18.70;57.90
9383;DHT22;4731;49.708;10.816;2023-03-01T13:47:34;19.30;57.50
9383;DHT22;4731;49.708;10.816;2023-03-01T13:50:03;19.80;57.40
9383;DHT22;4731;49.708;10.816;2023-03-01T13:52:37;20.00;57.00
9383;DHT22;4731;49.708;10.816;2023-03-01T13:55:14;19.90;57.20
9383;DHT22;4731;49.708;10.816;2023-03-01T13:57:45;19.40;57.00
9383;DHT22;4731;49.708;10.816;2023-03-01T14:00:33;18.60;57.30
9383;DHT22;4731;49.708;10.816;2023-03-01T14:03:08;18.60;58.00
9383;DHT22;4731;49.708;10.816;2023-03-01T14:05:36;18.00;58.80
9383;DHT22;4731;49.708;10.816;2023-03-01T14:08:14;17.20;59.30
9383;DHT22;4731;49.708;10.816;2023-03-01T14:10:54;16.00;60.50
9383;DHT22;4731;49.708;10.816;2023-03-01T14:13:35;14.70;62.20
9383;DHT22;4731;49.708;10.816;2023-03-01T14:16:17;13.70;65.30
9383;DHT22;4731;49.708;10.816;2023-03-01T14:18:54;13.60;68.60
9383;DHT22;4731;49.708;10.816;2023-03-01T14:21:24;13.90;67.80
9383;DHT22;4731;49.708;10.816;2023-03-01T14:23:53;13.80;67.80
9383;DHT22;4731;49.708;10.816;2023-03-01T14:26:21;14.00;66.90
9383;DHT22;4731;49.708;10.816;2023-03-01T14:28:49;14.70;67.40
9383;DHT22;4731;49.708;10.816;2023-03-01T14:31:36;16.00;66.80
9383;DHT22;4731;49.708;10.816;2023-03-01T14:34:03;15.30;66.40
9383;DHT22;4731;49.708;10.816;2023-03-01T14:36:31;14.90;65.30
9383;DHT22;4731;49.708;10.816;2023-03-01T14:39:00;16.20;65.90
9383;DHT22;4731;49.708;10.816;2023-03-01T14:41:33;17.00;65.30
9383;DHT22;4731;49.708;10.816;2023-03-01T14:44:03;17.10;63.50
9383;DHT22;4731;49.708;10.816;2023-03-01T14:46:33;17.10;63.70
9383;DHT22;4731;49.708;10.816;2023-03-01T14:49:04;16.30;63.30
9383;DHT22;4731;49.708;10.816;2023-03-01T14:51:36;16.70;65.30
9383;DHT22;4731;49.708;10.816;2023-03-01T14:54:11;15.70;64.40
9383;DHT22;4731;49.708;10.816;2023-03-01T14:56:44;15.60;66.10
9383;DHT22;4731;49.708;10.816;2023-03-01T14:59:11;16.00;65.60
9383;DHT22;4731;49.708;10.816;2023-03-01T15:01:40;15.60;65.70
9383;DHT22;4731;49.708;10.816;2023-03-01T15:04:11;16.30;67.50
9383;DHT22;4731;49.708;10.816;2023-03-01T15:06:38;14.90;66.80
9383;DHT22;4731;49.708;10.816;2023-03-01T15:09:12;15.60;68.50
9383;DHT22;4731;49.708;10.816;2023-03-01T15:11:40;15.40;68.10
9383;DHT22;4731;49.708;10.816;2023-03-01T15:14:38;15.20;67.50
9383;DHT22;4731;49.708;10.816;2023-03-01T15:17:20;14.90;68.00
9383;DHT22;4731;49.708;10.816;2023-03-01T15:19:49;14.20;68.70
9383;DHT22;4731;49.708;10.816;2023-03-01T15:22:16;13.50;71.00
9383;DHT22;4731;49.708;10.816;2023-03-01T15:24:48;13.10;72.60
9383;DHT22;4731;49.708;10.816;2023-03-01T15:27:16;14.00;75.80
9383;DHT22;4731;49.708;10.816;2023-03-01T15:29:49;12.10;77.30
9383;DHT22;4731;49.708;10.816;2023-03-01T15:32:27;11.70;79.50
9383;DHT22;4731;49.708;10.816;2023-03-01T15:34:55;11.20;84.20
9383;DHT22;4731;49.708;10.816;2023-03-01T15:37:39;10.90;87.20
9383;DHT22;4731;49.708;10.816;2023-03-01T15:40:19;13.20;91.40
9383;DHT22;4731;49.708;10.816;2023-03-01T15:42:50;10.40;91.70
9383;DHT22;4731;49.708;10.816;2023-03-01T15:45:25;10.10;92.90
9383;DHT22;4731;49.708;10.816;2023-03-01T15:47:55;9.80;94.70
9383;DHT22;4731;49.708;10.816;2023-03-01T15:50:26;9.80;95.90
9383;DHT22;4731;49.708;10.816;2023-03-01T15:52:54;9.80;97.00
9383;DHT22;4731;49.708;10.816;2023-03-01T15:55:25;9.80;97.90
9383;DHT22;4731;49.708;10.816;2023-03-01T15:57:59;9.70;98.20
9383;DHT22;4731;49.708;10.816;2023-03-01T16:00:27;9.60;98.60
9383;DHT22;4731;49.708;10.816;2023-03-01T16:02:54;11.90;99.90
9383;DHT22;4731;49.708;10.816;2023-03-01T16:05:23;9.40;99.90
9383;DHT22;4731;49.708;10.816;2023-03-01T16:07:51;9.30;99.90
9383;DHT22;4731;49.708;10.816;2023-03-01T16:10:18;9.20;99.90
9383;DHT22;4731;49.708;10.816;2023-03-01T16:12:46;10.60;99.90
9383;DHT22;4731;49.708;10.816;2023-03-01T16:15:16;8.80;99.90
9383;DHT22;4731;49.708;10.816;2023-03-01T16:17:43;8.60;99.90
9383;DHT22;4731;49.708;10.816;2023-03-01T16:20:11;8.50;99.90
9383;DHT22;4731;49.708;10.816;2023-03-01T16:22:41;8.20;99.90
9383;DHT22;4731;49.708;10.816;2023-03-01T16:25:09;8.10;99.90
9383;DHT22;4731;49.708;10.816;2023-03-01T16:27:35;7.90;99.90
9383;DHT22;4731;49.708;10.816;2023-03-01T16:30:05;7.70;99.90
9383;DHT22;4731;49.708;10.816;2023-03-01T16:32:32;7.50;99.90
9383;DHT22;4731;49.708;10.816;2023-03-01T16:34:59;9.40;99.90